createdAt,value
2023-02-03T00:01:37.620Z,3.15
2023-02-03T00:04:21.656Z,4.10
2023-02-03T00:07:04.300Z,3.17
2023-02-03T00:09:46.957Z,1.83
2023-02-03T00:12:29.598Z,2.30
2023-02-03T00:15:12.215Z,1.83
2023-02-03T00:17:54.838Z,1.55
2023-02-03T00:20:38.836Z,2.22
2023-02-03T00:23:21.435Z,1.80
2023-02-03T00:26:07.972Z,2.10
2023-02-03T00:28:50.600Z,2.28
2023-02-03T00:31:33.324Z,2.90
2023-02-03T00:34:15.977Z,1.30
2023-02-03T00:36:59.959Z,1.20
2023-02-03T00:39:42.682Z,2.17
2023-02-03T00:42:25.285Z,1.98
2023-02-03T00:45:08.549Z,1.83
2023-02-03T00:47:51.139Z,1.83
2023-02-03T00:50:33.751Z,1.55
2023-02-03T00:53:17.744Z,2.22
2023-02-03T00:56:00.363Z,1.80
2023-02-03T00:58:42.959Z,2.33
2023-02-03T01:01:25.625Z,2.70
2023-02-03T01:04:09.064Z,3.10
2023-02-03T01:06:51.735Z,3.70
2023-02-03T01:09:36.767Z,4.35
2023-02-03T01:12:19.335Z,4.93
2023-02-03T01:15:01.962Z,3.80
2023-02-03T01:17:44.543Z,4.72
2023-02-03T01:20:27.379Z,3.70
2023-02-03T01:23:10.109Z,7.53
2023-02-03T01:25:54.027Z,6.95
2023-02-03T01:28:36.776Z,3.97
2023-02-03T01:31:20.739Z,4.13
2023-02-03T01:34:03.913Z,6.32
2023-02-03T01:36:47.055Z,7.00
2023-02-03T01:39:29.671Z,3.72
2023-02-03T01:42:15.360Z,4.95
2023-02-03T01:44:58.447Z,5.90
2023-02-03T01:47:45.270Z,5.78
2023-02-03T01:50:30.434Z,5.75
2023-02-03T01:53:13.291Z,4.32
2023-02-03T01:55:55.915Z,3.63
2023-02-03T01:58:42.403Z,5.15
2023-02-03T02:01:25.086Z,3.80
2023-02-03T02:04:07.940Z,3.88
2023-02-03T02:06:51.684Z,3.83
2023-02-03T02:09:34.339Z,6.50
2023-02-03T02:12:16.894Z,7.88
2023-02-03T02:15:00.980Z,6.03
2023-02-03T02:17:55.604Z,4.20
2023-02-03T02:20:55.715Z,2.65
2023-02-03T02:23:46.224Z,2.78
2023-02-03T02:26:46.636Z,5.40
2023-02-03T02:29:47.814Z,6.07
2023-02-03T02:32:36.853Z,6.75
2023-02-03T02:35:26.617Z,6.28
2023-02-03T02:38:14.543Z,3.38
2023-02-03T02:41:01.159Z,4.18
2023-02-03T02:43:45.508Z,2.30
2023-02-03T02:46:32.430Z,4.80
2023-02-03T02:49:20.527Z,5.85
2023-02-03T02:52:05.265Z,4.80
2023-02-03T02:54:53.248Z,5.45
2023-02-03T02:57:38.700Z,4.72
2023-02-03T03:00:21.675Z,4.45
2023-02-03T03:03:14.526Z,5.63
2023-02-03T03:06:02.263Z,5.82
2023-02-03T03:08:50.795Z,4.80
2023-02-03T03:11:35.120Z,5.97
2023-02-03T03:14:19.806Z,2.55
2023-02-03T03:17:05.611Z,3.33
2023-02-03T03:19:51.483Z,7.60
2023-02-03T03:22:37.906Z,5.55
2023-02-03T03:25:22.088Z,4.50
2023-02-03T03:28:07.288Z,4.28
2023-02-03T03:30:50.127Z,3.75
2023-02-03T03:33:32.788Z,2.50
2023-02-03T03:36:19.915Z,4.03
2023-02-03T03:39:05.992Z,3.60
2023-02-03T03:41:51.822Z,6.68
2023-02-03T03:44:37.138Z,7.10
2023-02-03T03:47:22.118Z,2.20
2023-02-03T03:50:07.011Z,4.18
2023-02-03T03:52:50.689Z,5.03
2023-02-03T03:55:36.544Z,5.15
2023-02-03T03:58:20.847Z,5.78
2023-02-03T04:01:04.799Z,2.95
2023-02-03T04:03:48.449Z,6.35
2023-02-03T04:06:31.035Z,3.78
2023-02-03T04:09:13.632Z,6.55
2023-02-03T04:12:05.769Z,4.50
2023-02-03T04:14:48.340Z,5.13
2023-02-03T04:17:33.366Z,3.65
2023-02-03T04:20:16.507Z,4.03
2023-02-03T04:22:59.600Z,4.20
2023-02-03T04:25:42.182Z,4.68
2023-02-03T04:28:26.205Z,5.20
2023-02-03T04:31:08.888Z,4.55
2023-02-03T04:33:51.518Z,3.50
2023-02-03T04:36:34.140Z,3.33
2023-02-03T04:39:16.737Z,2.97
2023-02-03T04:41:59.309Z,6.35
2023-02-03T04:44:43.244Z,4.25
2023-02-03T04:47:25.892Z,5.63
2023-02-03T04:50:08.961Z,6.05
2023-02-03T04:52:51.561Z,2.28
2023-02-03T04:55:36.904Z,3.60
2023-02-03T04:58:19.499Z,2.80
2023-02-03T05:01:08.524Z,5.28
2023-02-03T05:03:51.184Z,2.97
2023-02-03T05:06:34.615Z,4.07
2023-02-03T05:09:17.247Z,3.88
2023-02-03T05:11:59.825Z,4.25
2023-02-03T05:14:42.410Z,4.65
2023-02-03T05:17:26.372Z,2.88
2023-02-03T05:20:09.592Z,3.30
2023-02-03T05:22:52.168Z,3.85
2023-02-03T05:25:35.105Z,4.45
2023-02-03T05:28:17.835Z,1.75
2023-02-03T05:31:00.573Z,3.65
2023-02-03T05:33:44.493Z,3.13
2023-02-03T05:36:27.111Z,4.75
2023-02-03T05:39:09.882Z,4.20
2023-02-03T05:41:56.429Z,5.95
2023-02-03T05:44:39.893Z,2.17
2023-02-03T05:47:22.466Z,2.05
2023-02-03T05:50:06.907Z,3.95
2023-02-03T05:52:49.616Z,4.45
2023-02-03T05:55:32.502Z,3.58
2023-02-03T05:58:15.139Z,4.97
2023-02-03T06:00:57.726Z,2.67
2023-02-03T06:03:40.375Z,4.07
2023-02-03T06:06:24.707Z,1.88
2023-02-03T06:09:07.977Z,2.55
2023-02-03T06:11:50.550Z,3.17
2023-02-03T06:14:33.118Z,4.10
2023-02-03T06:17:15.727Z,2.05
2023-02-03T06:19:58.505Z,4.00
2023-02-03T06:22:42.529Z,2.58
2023-02-03T06:25:25.227Z,6.25
2023-02-03T06:28:07.945Z,2.72
2023-02-03T06:30:51.300Z,3.22
2023-02-03T06:33:34.108Z,2.28
2023-02-03T06:36:16.721Z,2.10
2023-02-03T06:39:00.703Z,3.50
2023-02-03T06:41:43.304Z,3.92
2023-02-03T06:44:25.899Z,3.65
2023-02-03T06:47:08.595Z,2.60
2023-02-03T06:49:52.155Z,2.28
2023-02-03T06:52:34.844Z,5.32
2023-02-03T06:55:18.831Z,5.00
2023-02-03T06:58:01.555Z,2.13
2023-02-03T07:00:44.246Z,3.38
2023-02-03T07:03:26.856Z,5.05
2023-02-03T07:06:09.481Z,3.85
2023-02-03T07:08:52.102Z,6.35
2023-02-03T07:11:36.056Z,8.80
2023-02-03T07:14:18.753Z,9.95
2023-02-03T07:17:01.367Z,4.93
2023-02-03T07:19:46.004Z,5.88
2023-02-03T07:22:28.764Z,6.63
2023-02-03T07:25:11.421Z,4.40
2023-02-03T07:27:55.699Z,8.02
2023-02-03T07:30:38.376Z,7.40
2023-02-03T07:33:21.214Z,4.25
2023-02-03T07:36:04.624Z,5.25
2023-02-03T07:38:47.218Z,5.85
2023-02-03T07:41:29.822Z,2.53
2023-02-03T07:44:14.004Z,4.00
2023-02-03T07:46:56.743Z,3.88
2023-02-03T07:49:39.365Z,5.82
2023-02-03T07:52:22.166Z,3.45
2023-02-03T07:55:05.025Z,5.68
2023-02-03T07:57:47.632Z,4.05
2023-02-03T08:00:31.653Z,6.60
2023-02-03T08:03:14.349Z,4.97
2023-02-03T08:05:56.926Z,10.65
2023-02-03T08:08:41.053Z,5.38
2023-02-03T08:11:23.696Z,9.40
2023-02-03T08:14:06.300Z,7.38
2023-02-03T08:16:51.555Z,1.65
2023-02-03T08:19:34.229Z,4.80
2023-02-03T08:22:17.300Z,6.80
2023-02-03T08:25:00.004Z,7.90
2023-02-03T08:27:42.941Z,7.30
2023-02-03T08:30:26.380Z,7.70
2023-02-03T08:33:10.456Z,11.23
2023-02-03T08:35:53.142Z,7.78
2023-02-03T08:38:35.747Z,10.85
2023-02-03T08:41:19.998Z,8.82
2023-02-03T08:44:02.668Z,11.98
2023-02-03T08:46:45.253Z,10.27
2023-02-03T08:49:30.044Z,13.02
2023-02-03T08:52:13.463Z,12.27
2023-02-03T08:54:56.063Z,9.15
2023-02-03T08:57:39.983Z,11.38
2023-02-03T09:00:22.950Z,12.50
2023-02-03T09:03:05.644Z,13.95
2023-02-03T09:05:49.658Z,12.23
2023-02-03T09:08:32.469Z,10.90
2023-02-03T09:11:16.104Z,14.70
2023-02-03T09:13:58.719Z,12.00
2023-02-03T09:16:41.416Z,16.50
2023-02-03T09:19:24.060Z,12.50
2023-02-03T09:22:08.257Z,14.68
2023-02-03T09:24:51.337Z,18.50
2023-02-03T09:27:33.987Z,15.85
2023-02-03T09:30:16.665Z,12.25
2023-02-03T09:32:59.277Z,15.38
2023-02-03T09:35:41.982Z,13.70
2023-02-03T09:38:26.295Z,14.02
2023-02-03T09:41:15.889Z,21.13
2023-02-03T09:44:01.245Z,14.73
2023-02-03T09:46:45.260Z,23.38
2023-02-03T09:49:29.400Z,17.25
2023-02-03T09:52:15.060Z,17.38
2023-02-03T09:55:01.711Z,17.77
2023-02-03T09:57:46.834Z,23.40
2023-02-03T10:00:31.700Z,16.35
2023-02-03T10:03:17.077Z,21.08
2023-02-03T10:06:11.092Z,16.27
2023-02-03T10:09:02.303Z,20.00
2023-02-03T10:11:59.657Z,23.90
2023-02-03T10:14:47.759Z,16.75
2023-02-03T10:17:32.134Z,18.65
2023-02-03T10:20:17.613Z,24.40
2023-02-03T10:23:03.030Z,19.00
2023-02-03T10:25:49.576Z,22.02
2023-02-03T10:28:36.930Z,23.13
2023-02-03T10:31:21.636Z,17.20
2023-02-03T10:34:10.867Z,18.83
2023-02-03T10:36:55.734Z,21.13
2023-02-03T10:39:41.271Z,16.98
2023-02-03T10:42:23.965Z,23.30
2023-02-03T10:45:12.274Z,16.77
2023-02-03T10:47:55.946Z,18.55
2023-02-03T10:50:39.663Z,16.70
2023-02-03T10:53:24.265Z,20.67
2023-02-03T10:56:08.320Z,18.60
2023-02-03T10:58:52.100Z,15.15
2023-02-03T11:01:41.989Z,20.95
2023-02-03T11:04:26.682Z,20.02
2023-02-03T11:07:24.386Z,16.40
2023-02-03T11:10:27.005Z,18.02
2023-02-03T11:13:20.383Z,21.40
2023-02-03T11:16:03.995Z,14.75
2023-02-03T11:18:54.973Z,19.38
2023-02-03T11:21:42.187Z,20.83
2023-02-03T11:24:26.184Z,18.15
2023-02-03T11:27:13.008Z,19.40
2023-02-03T11:30:07.702Z,17.92
2023-02-03T11:32:50.680Z,17.10
2023-02-03T11:35:37.998Z,18.27
2023-02-03T11:38:30.176Z,18.27
2023-02-03T11:41:17.053Z,21.27
2023-02-03T11:43:59.782Z,16.65
2023-02-03T11:46:42.505Z,15.93
2023-02-03T11:49:38.308Z,11.88
2023-02-03T11:52:42.012Z,15.52
2023-02-03T11:55:45.607Z,14.48
2023-02-03T11:58:37.112Z,20.00
2023-02-03T12:01:25.534Z,17.23
2023-02-03T12:04:15.619Z,15.35
2023-02-03T12:07:23.579Z,16.48
2023-02-03T12:10:09.039Z,15.13
2023-02-03T12:12:53.847Z,17.92
2023-02-03T12:15:47.049Z,18.75
2023-02-03T12:18:34.655Z,16.00
2023-02-03T12:21:32.477Z,19.45
2023-02-03T12:24:26.500Z,13.27
2023-02-03T12:27:18.243Z,13.63
2023-02-03T12:30:02.824Z,17.55
2023-02-03T12:32:49.525Z,14.13
2023-02-03T12:35:34.397Z,11.10
2023-02-03T12:38:21.368Z,13.80
2023-02-03T12:41:08.316Z,21.25
2023-02-03T12:43:52.684Z,13.32
2023-02-03T12:46:40.028Z,11.45
2023-02-03T12:49:29.015Z,15.65
2023-02-03T12:52:15.385Z,15.85
2023-02-03T12:55:01.896Z,20.05
2023-02-03T12:57:47.407Z,12.18
2023-02-03T13:00:35.877Z,17.08
2023-02-03T13:03:21.238Z,15.50
2023-02-03T13:06:09.327Z,13.35
2023-02-03T13:08:55.238Z,22.85
2023-02-03T13:11:39.399Z,16.08
2023-02-03T13:14:24.801Z,13.10
2023-02-03T13:17:09.082Z,12.52
2023-02-03T13:19:56.070Z,14.15
2023-02-03T13:22:40.199Z,17.70
2023-02-03T13:25:25.427Z,10.63
2023-02-03T13:28:13.500Z,20.38
2023-02-03T13:31:05.199Z,12.10
2023-02-03T13:33:52.670Z,13.77
2023-02-03T13:36:47.803Z,14.77
2023-02-03T13:39:37.731Z,15.10
2023-02-03T13:42:22.547Z,20.13
2023-02-03T13:45:08.622Z,13.68
2023-02-03T13:47:52.980Z,15.57
2023-02-03T13:50:37.190Z,13.70
2023-02-03T13:53:21.871Z,14.75
2023-02-03T13:56:07.783Z,8.77
2023-02-03T13:59:01.440Z,16.67
2023-02-03T14:01:44.557Z,14.38
2023-02-03T14:04:48.194Z,12.60
2023-02-03T14:07:33.844Z,15.77
2023-02-03T14:10:21.300Z,15.75
2023-02-03T14:13:21.262Z,16.80
2023-02-03T14:16:23.296Z,13.60
2023-02-03T14:19:06.408Z,16.77
2023-02-03T14:21:50.216Z,12.90
2023-02-03T14:24:33.711Z,19.30
2023-02-03T14:27:18.329Z,15.00
2023-02-03T14:30:07.370Z,14.48
2023-02-03T14:32:50.670Z,18.25
2023-02-03T14:35:34.565Z,16.55
2023-02-03T14:38:17.278Z,16.63
2023-02-03T14:41:01.806Z,18.73
2023-02-03T14:43:50.625Z,20.58
2023-02-03T14:46:53.631Z,14.60
2023-02-03T14:49:43.676Z,16.65
2023-02-03T14:52:42.964Z,12.10
2023-02-03T14:55:33.983Z,17.05
2023-02-03T14:58:21.297Z,17.27
2023-02-03T15:01:04.783Z,13.73
2023-02-03T15:04:17.551Z,14.23
2023-02-03T15:07:01.607Z,19.73
2023-02-03T15:09:46.942Z,17.00
2023-02-03T15:12:37.574Z,16.55
2023-02-03T15:15:22.005Z,19.98
2023-02-03T15:18:19.499Z,18.13
2023-02-03T15:21:02.169Z,14.25
2023-02-03T15:23:49.380Z,17.20
2023-02-03T15:26:32.473Z,20.23
2023-02-03T15:29:24.692Z,20.67
2023-02-03T15:32:10.534Z,16.90
2023-02-03T15:34:54.080Z,16.00
2023-02-03T15:37:40.951Z,12.95
2023-02-03T15:40:27.794Z,18.30
2023-02-03T15:43:12.181Z,18.80
2023-02-03T15:45:57.667Z,17.23
2023-02-03T15:48:43.116Z,12.63
2023-02-03T15:51:27.628Z,16.25
2023-02-03T15:54:14.543Z,17.83
2023-02-03T15:57:00.176Z,16.60
2023-02-03T15:59:44.222Z,22.38
2023-02-03T16:02:29.351Z,17.85
2023-02-03T16:05:21.216Z,17.80
2023-02-03T16:08:22.645Z,19.05
2023-02-03T16:11:20.184Z,18.65
2023-02-03T16:14:04.896Z,17.83
2023-02-03T16:17:04.414Z,17.90
2023-02-03T16:19:51.338Z,18.33
2023-02-03T16:22:37.405Z,14.80
2023-02-03T16:25:21.349Z,18.27
2023-02-03T16:28:23.049Z,16.65
2023-02-03T16:31:30.222Z,21.05
2023-02-03T16:34:33.994Z,17.55
2023-02-03T16:37:41.033Z,20.70
2023-02-03T16:40:42.081Z,13.65
2023-02-03T16:43:42.179Z,11.13
2023-02-03T16:46:43.458Z,15.07
2023-02-03T16:49:43.804Z,14.82
2023-02-03T16:52:26.414Z,17.88
2023-02-03T16:55:09.866Z,19.52
2023-02-03T16:57:52.468Z,15.57
2023-02-03T17:00:35.305Z,11.02
2023-02-03T17:03:20.668Z,15.30
2023-02-03T17:06:04.136Z,20.55
2023-02-03T17:08:47.011Z,19.00
2023-02-03T17:11:29.619Z,17.70
2023-02-03T17:14:12.283Z,14.50
2023-02-03T17:16:55.256Z,14.65
2023-02-03T17:19:39.311Z,14.18
2023-02-03T17:22:21.927Z,10.50
2023-02-03T17:25:04.737Z,14.55
2023-02-03T17:27:47.463Z,13.32
2023-02-03T17:30:33.862Z,13.25
2023-02-03T17:33:16.705Z,18.33
2023-02-03T17:36:05.043Z,14.75
2023-02-03T17:53:51.797Z,10.65
2023-02-03T17:56:35.636Z,11.68
2023-02-03T17:59:18.392Z,11.00
2023-02-03T18:02:01.021Z,9.95
2023-02-03T18:04:44.496Z,8.52
2023-02-03T18:07:27.170Z,15.95
2023-02-03T18:10:11.410Z,14.90
2023-02-03T18:12:53.966Z,14.02
2023-02-03T18:15:37.831Z,14.65
2023-02-03T18:18:21.535Z,16.40
2023-02-03T18:21:04.640Z,12.80
2023-02-03T18:23:48.331Z,13.93
2023-02-03T18:26:34.803Z,13.05
2023-02-03T18:29:17.912Z,13.95
2023-02-03T18:32:00.541Z,10.68
2023-02-03T18:34:43.303Z,9.75
2023-02-03T18:37:25.952Z,12.68
2023-02-03T18:40:08.809Z,11.38
2023-02-03T18:42:56.067Z,11.32
2023-02-03T18:45:38.962Z,10.13
2023-02-03T18:48:21.662Z,14.68
2023-02-03T18:51:04.366Z,11.32
2023-02-03T18:53:48.982Z,15.25
2023-02-03T18:56:35.273Z,12.80
2023-02-03T18:59:19.396Z,9.48
2023-02-03T19:02:02.016Z,12.52
2023-02-03T19:04:44.642Z,12.32
2023-02-03T19:07:27.375Z,8.18
2023-02-03T19:10:10.517Z,10.18
2023-02-03T19:12:53.168Z,7.88
2023-02-03T19:15:37.162Z,5.35
2023-02-03T19:18:19.804Z,7.22
2023-02-03T19:21:02.470Z,10.45
2023-02-03T19:23:45.127Z,8.07
2023-02-03T19:26:28.103Z,11.50
2023-02-03T19:29:11.351Z,6.18
2023-02-03T19:31:55.689Z,6.07
2023-02-03T19:34:38.553Z,12.98
2023-02-03T19:37:21.217Z,9.25
2023-02-03T19:40:04.946Z,4.22
2023-02-03T19:42:47.577Z,5.03
2023-02-03T19:45:30.197Z,6.45
2023-02-03T19:48:14.185Z,4.53
2023-02-03T19:50:56.759Z,3.53
2023-02-03T19:53:39.431Z,4.65
2023-02-03T19:56:22.467Z,6.78
2023-02-03T19:59:05.674Z,3.53
2023-02-03T20:01:49.818Z,4.82
2023-02-03T20:04:35.484Z,5.03
2023-02-03T20:07:18.138Z,5.68
2023-02-03T20:10:00.899Z,3.97
2023-02-03T20:12:43.563Z,2.85
2023-02-03T20:15:26.922Z,3.70
2023-02-03T20:18:09.584Z,4.38
2023-02-03T20:20:53.889Z,3.97
2023-02-03T20:23:37.004Z,5.35
2023-02-03T20:26:19.705Z,3.67
2023-02-03T20:29:02.409Z,3.70
2023-02-03T20:31:45.406Z,8.10
2023-02-03T20:34:28.687Z,5.10
2023-02-03T20:37:12.724Z,6.43
2023-02-03T20:39:55.548Z,4.15
2023-02-03T20:42:38.332Z,2.97
2023-02-03T20:45:22.080Z,5.00
2023-02-03T20:48:04.775Z,6.72
2023-02-03T20:50:48.101Z,4.03
2023-02-03T20:53:32.414Z,1.98
2023-02-03T20:56:16.178Z,2.22
2023-02-03T20:58:59.184Z,5.65
2023-02-03T21:01:42.033Z,1.65
2023-02-03T21:04:42.501Z,1.90
2023-02-03T21:07:26.851Z,3.08
2023-02-03T21:10:18.192Z,3.15
2023-02-03T21:13:00.907Z,3.30
2023-02-03T21:15:43.576Z,2.45
2023-02-03T21:18:29.198Z,2.92
2023-02-03T21:21:14.815Z,1.63
2023-02-03T21:23:57.441Z,2.63
2023-02-03T21:26:41.529Z,4.00
2023-02-03T21:29:26.330Z,5.72
2023-02-03T21:32:12.594Z,2.75
2023-02-03T21:34:55.242Z,2.80
2023-02-03T21:37:41.308Z,8.98
2023-02-03T21:40:26.047Z,1.80
2023-02-03T21:43:17.297Z,2.20
2023-02-03T21:46:01.745Z,2.67
2023-02-03T21:48:46.652Z,2.28
2023-02-03T21:51:30.903Z,0.90
2023-02-03T21:54:23.167Z,2.33
2023-02-03T21:57:05.889Z,1.75
2023-02-03T21:59:49.873Z,4.18
2023-02-03T22:02:43.998Z,1.92
2023-02-03T22:05:26.667Z,1.33
2023-02-03T22:08:14.800Z,6.30
2023-02-03T22:10:57.437Z,4.18
2023-02-03T22:13:40.055Z,2.60
2023-02-03T22:16:24.057Z,2.42
2023-02-03T22:19:06.801Z,1.70
2023-02-03T22:21:50.943Z,1.13
2023-02-03T22:24:33.600Z,7.45
2023-02-03T22:27:16.245Z,3.67
2023-02-03T22:29:58.866Z,2.85
2023-02-03T22:32:42.874Z,2.22
2023-02-03T22:35:25.716Z,1.25
2023-02-03T22:38:08.351Z,1.52
2023-02-03T22:40:50.990Z,0.98
2023-02-03T22:43:33.629Z,0.65
2023-02-03T22:46:16.284Z,1.23
2023-02-03T22:49:00.297Z,2.47
2023-02-03T22:51:42.924Z,3.63
2023-02-03T22:54:25.575Z,2.47
2023-02-03T22:57:08.171Z,4.03
2023-02-03T22:59:50.852Z,3.08
2023-02-03T23:02:33.494Z,5.63
2023-02-03T23:05:18.256Z,4.05
2023-02-03T23:08:01.164Z,4.70
2023-02-03T23:10:43.774Z,2.17
2023-02-03T23:13:26.733Z,4.43
2023-02-03T23:16:09.370Z,3.47
2023-02-03T23:18:52.007Z,8.82
2023-02-03T23:21:35.980Z,8.52
2023-02-03T23:24:18.591Z,13.90
2023-02-03T23:27:01.255Z,7.32
2023-02-03T23:29:43.873Z,5.65
2023-02-03T23:32:26.507Z,4.35
2023-02-03T23:35:27.226Z,1.67
2023-02-03T23:38:11.239Z,1.63
2023-02-03T23:40:55.969Z,1.42
2023-02-03T23:43:38.588Z,1.48
2023-02-03T23:46:21.355Z,0.90
2023-02-03T23:49:04.122Z,1.05
2023-02-03T23:51:46.690Z,1.17
2023-02-03T23:54:30.642Z,1.27
2023-02-03T23:57:13.233Z,1.02
2023-02-03T23:59:55.865Z,1.20
